Time;durP1;ratioP1;P1;durP2;ratioP2;P2;SDS_P1;SDS_P2;PMS_P1;PMS_P2;Temp;Humidity;BMP_temperature;BMP_pressure;BME280_temperature;BME280_humidity;BME280_pressure;Samples;Min_cycle;Max_cycle;Signal;HPM_P1;HPM_P2
2022/07/03 00:02:10;;;;;;;3.22;2.92;;;19.30;99.90;;;;;;5034443;28;20286;-82
2022/07/03 00:04:39;;;;;;;4.78;3.25;;;19.30;99.90;;;;;;5035021;28;20214;-82
2022/07/03 00:07:07;;;;;;;2.80;2.60;;;19.30;99.90;;;;;;5035012;28;20281;-82
2022/07/03 00:09:35;;;;;;;3.17;2.92;;;19.30;99.90;;;;;;5034595;28;20238;-82
2022/07/03 00:12:05;;;;;;;6.07;3.63;;;19.30;99.90;;;;;;5034304;28;20234;-82
2022/07/03 00:14:35;;;;;;;3.17;2.97;;;19.30;99.90;;;;;;5034836;28;20297;-82
2022/07/03 00:17:04;;;;;;;3.55;3.20;;;19.20;99.90;;;;;;5034861;28;20237;-82
2022/07/03 00:19:32;;;;;;;3.20;2.90;;;19.20;99.90;;;;;;5034706;28;20285;-82
2022/07/03 00:22:05;;;;;;;3.10;2.85;;;19.20;99.90;;;;;;5034576;28;20302;-82
2022/07/03 00:24:39;;;;;;;3.88;3.00;;;19.10;99.90;;;;;;5034606;28;20289;-81
2022/07/03 00:27:10;;;;;;;2.83;2.67;;;19.10;99.90;;;;;;5034470;28;20209;-82
2022/07/03 00:29:42;;;;;;;3.38;2.88;;;19.00;99.90;;;;;;5034369;28;20260;-81
2022/07/03 00:32:12;;;;;;;4.40;4.00;;;19.00;99.90;;;;;;5034057;28;20293;-82
2022/07/03 00:34:43;;;;;;;3.88;3.17;;;19.00;99.90;;;;;;5034643;28;20209;-82
2022/07/03 00:37:12;;;;;;;3.13;2.92;;;19.00;99.90;;;;;;5034204;28;20257;-82
2022/07/03 00:39:43;;;;;;;2.75;2.60;;;19.00;99.90;;;;;;5033874;28;20230;-82
2022/07/03 00:42:12;;;;;;;4.95;3.35;;;19.00;99.90;;;;;;5033878;28;20249;-81
2022/07/03 00:44:48;;;;;;;3.00;2.80;;;18.90;99.90;;;;;;5034271;28;20221;-82
2022/07/03 00:47:18;;;;;;;3.53;3.20;;;18.90;99.90;;;;;;5034453;28;20237;-86
2022/07/03 00:49:48;;;;;;;3.83;3.50;;;18.90;99.90;;;;;;5034146;28;20272;-86
2022/07/03 00:52:18;;;;;;;3.65;3.35;;;18.80;99.90;;;;;;5033692;28;20264;-86
2022/07/03 00:54:53;;;;;;;4.95;3.63;;;18.90;99.90;;;;;;5034012;28;20206;-86
2022/07/03 00:57:23;;;;;;;3.25;2.95;;;18.80;99.90;;;;;;5033748;28;20213;-86
2022/07/03 00:59:53;;;;;;;3.80;3.50;;;18.80;99.90;;;;;;5033582;28;20221;-86
2022/07/03 01:02:34;;;;;;;3.30;3.00;;;18.80;99.90;;;;;;5033939;28;20280;-87
2022/07/03 01:05:10;;;;;;;3.30;3.00;;;18.80;99.90;;;;;;5033642;28;20230;-86
2022/07/03 01:07:47;;;;;;;3.67;3.38;;;18.80;99.90;;;;;;5033907;28;20261;-86
2022/07/03 01:10:27;;;;;;;3.42;3.13;;;18.80;99.90;;;;;;5033259;28;20257;-86
2022/07/03 01:13:01;;;;;;;3.42;3.13;;;18.80;99.90;;;;;;5033492;28;20313;-86
2022/07/03 01:15:44;;;;;;;3.53;3.22;;;18.70;99.90;;;;;;5033996;28;20210;-87
2022/07/03 01:18:28;;;;;;;4.53;3.38;;;18.70;99.90;;;;;;5033793;28;20248;-82
2022/07/03 01:21:05;;;;;;;3.00;2.80;;;18.70;99.90;;;;;;5033446;28;20266;-82
2022/07/03 01:23:56;;;;;;;2.85;2.65;;;18.60;99.90;;;;;;5033576;28;20226;-82
2022/07/03 01:26:29;;;;;;;3.80;3.50;;;18.60;99.90;;;;;;5030521;28;20206;-82
2022/07/03 01:29:04;;;;;;;3.53;3.22;;;18.60;99.90;;;;;;5033314;28;20214;-82
2022/07/03 01:31:33;;;;;;;3.33;3.10;;;18.60;99.90;;;;;;5032725;28;20253;-82
2022/07/03 01:34:05;;;;;;;3.33;3.03;;;18.60;99.90;;;;;;5032851;28;20226;-81
2022/07/03 01:36:34;;;;;;;3.25;2.95;;;18.50;99.90;;;;;;5033215;28;20301;-82
2022/07/03 01:39:03;;;;;;;3.05;2.85;;;18.40;99.90;;;;;;5033085;28;20218;-82
2022/07/03 01:41:33;;;;;;;3.60;2.80;;;18.40;99.90;;;;;;5032936;28;20209;-81
2022/07/03 01:44:04;;;;;;;3.50;3.20;;;18.30;99.90;;;;;;5032779;28;20230;-81
2022/07/03 01:46:33;;;;;;;2.83;2.63;;;18.30;99.90;;;;;;5033204;28;20293;-82
2022/07/03 01:49:04;;;;;;;3.30;3.10;;;18.30;99.90;;;;;;5033218;28;20198;-82
2022/07/03 01:51:35;;;;;;;3.22;3.03;;;18.30;99.90;;;;;;5032520;28;20309;-82
2022/07/03 01:54:06;;;;;;;3.40;2.92;;;18.20;99.90;;;;;;5033165;28;20257;-81
2022/07/03 01:56:36;;;;;;;3.30;3.08;;;18.20;99.90;;;;;;5032638;28;20268;-82
2022/07/03 01:59:05;;;;;;;3.55;3.25;;;18.20;99.90;;;;;;5033220;28;20218;-81
2022/07/03 02:01:42;;;;;;;2.58;2.47;;;18.20;99.90;;;;;;5032797;28;20203;-82
2022/07/03 02:04:18;;;;;;;3.70;3.40;;;18.20;99.90;;;;;;5032653;28;20244;-82
2022/07/03 02:06:59;;;;;;;3.58;3.28;;;18.20;99.90;;;;;;5033306;28;20249;-81
2022/07/03 02:09:37;;;;;;;3.35;3.03;;;18.20;99.90;;;;;;5032249;28;20297;-82
2022/07/03 02:12:14;;;;;;;2.95;2.75;;;18.20;99.90;;;;;;5032095;28;20266;-82
2022/07/03 02:14:51;;;;;;;3.30;3.10;;;18.30;99.90;;;;;;5032733;28;20206;-82
2022/07/03 02:17:22;;;;;;;8.23;4.13;;;18.30;99.90;;;;;;5032920;28;20414;-82
2022/07/03 02:19:54;;;;;;;3.47;3.28;;;18.30;99.90;;;;;;5032694;28;20234;-82
2022/07/03 02:22:28;;;;;;;3.70;3.38;;;18.40;99.90;;;;;;5032679;28;20230;-81
2022/07/03 02:25:03;;;;;;;3.78;3.47;;;18.30;99.90;;;;;;5032557;28;20237;-82
2022/07/03 02:27:38;;;;;;;3.05;2.85;;;18.30;99.90;;;;;;5032740;28;20233;-82
2022/07/03 02:30:08;;;;;;;3.42;3.22;;;18.30;99.90;;;;;;5032819;28;20313;-81
2022/07/03 02:32:42;;;;;;;4.28;3.97;;;18.40;99.90;;;;;;5032454;28;20218;-81
2022/07/03 02:35:17;;;;;;;4.40;4.03;;;18.40;99.90;;;;;;5032877;28;20226;-82
2022/07/03 02:37:51;;;;;;;5.70;4.03;;;18.40;99.90;;;;;;5032492;28;20205;-82
2022/07/03 02:40:27;;;;;;;3.78;3.47;;;18.40;99.90;;;;;;5032179;28;20202;-81
2022/07/03 02:43:08;;;;;;;6.10;4.15;;;18.30;99.90;;;;;;5032295;28;20226;-81
2022/07/03 02:45:41;;;;;;;9.40;3.65;;;18.30;99.90;;;;;;5032394;28;20289;-82
2022/07/03 02:48:17;;;;;;;3.13;2.90;;;18.30;99.90;;;;;;5032485;28;20214;-82
2022/07/03 02:50:51;;;;;;;3.78;3.42;;;18.30;99.90;;;;;;5032296;28;20250;-82
2022/07/03 02:53:27;;;;;;;4.00;3.60;;;18.30;99.90;;;;;;5032296;28;20241;-82
2022/07/03 02:56:05;;;;;;;3.47;3.28;;;18.30;99.90;;;;;;5032513;28;20253;-81
2022/07/03 02:59:05;;;;;;;3.67;3.30;;;18.20;99.90;;;;;;5032173;28;20239;-82
2022/07/03 03:01:39;;;;;;;3.72;3.42;;;18.20;99.90;;;;;;5032371;28;20207;-82
2022/07/03 03:04:13;;;;;;;3.60;3.38;;;18.20;99.90;;;;;;5032283;28;20234;-82
2022/07/03 03:06:49;;;;;;;3.90;3.60;;;18.20;99.90;;;;;;5032370;28;20225;-81
2022/07/03 03:09:25;;;;;;;3.03;2.78;;;18.20;99.90;;;;;;5032293;28;20282;-82
2022/07/03 03:11:56;;;;;;;4.35;3.95;;;18.20;99.90;;;;;;5031372;28;20276;-81
2022/07/03 03:14:35;;;;;;;3.50;3.20;;;18.20;99.90;;;;;;5032299;28;20222;-81
2022/07/03 03:17:07;;;;;;;4.35;3.97;;;18.20;99.90;;;;;;5032488;28;20288;-82
2022/07/03 03:19:40;;;;;;;3.45;3.20;;;18.10;99.90;;;;;;5032611;28;20202;-82
2022/07/03 03:22:32;;;;;;;6.05;4.10;;;18.20;99.90;;;;;;5033999;28;20207;-81
2022/07/03 03:25:02;;;;;;;3.72;3.42;;;18.20;99.90;;;;;;5035536;28;20289;-81
2022/07/03 03:27:30;;;;;;;6.88;4.47;;;18.10;99.90;;;;;;5035945;28;20310;-81
2022/07/03 03:30:00;;;;;;;3.80;3.50;;;18.20;99.90;;;;;;5035626;28;20242;-81
2022/07/03 03:32:30;;;;;;;4.22;3.90;;;18.10;99.90;;;;;;5035044;28;20309;-81
2022/07/03 03:34:58;;;;;;;3.92;3.63;;;18.10;99.90;;;;;;5035594;28;20217;-81
2022/07/03 03:37:27;;;;;;;3.95;3.65;;;18.20;99.90;;;;;;5035260;28;20226;-81
2022/07/03 03:39:55;;;;;;;4.32;4.03;;;18.10;99.90;;;;;;5035170;28;20289;-82
2022/07/03 03:42:23;;;;;;;3.92;3.63;;;18.10;99.90;;;;;;5035005;28;20277;-81
2022/07/03 03:44:52;;;;;;;5.68;3.78;;;18.10;99.90;;;;;;5035175;28;20289;-81
2022/07/03 03:47:21;;;;;;;4.82;4.43;;;18.10;99.90;;;;;;5034919;28;20270;-81
2022/07/03 03:49:50;;;;;;;4.22;3.90;;;18.10;99.90;;;;;;5035041;28;20202;-81
2022/07/03 03:52:18;;;;;;;4.32;3.92;;;18.00;99.90;;;;;;5034425;28;20234;-81
2022/07/03 03:54:47;;;;;;;4.35;3.95;;;18.00;99.90;;;;;;5035240;28;20277;-84
2022/07/03 03:57:19;;;;;;;3.72;3.42;;;18.00;99.90;;;;;;5035643;28;20213;-83
2022/07/03 03:59:50;;;;;;;4.18;3.80;;;18.00;99.90;;;;;;5034862;28;20212;-84
2022/07/03 04:02:22;;;;;;;3.47;3.20;;;18.00;99.90;;;;;;5034607;28;20229;-83
2022/07/03 04:04:50;;;;;;;4.40;4.00;;;18.10;99.90;;;;;;5034850;28;20265;-83
2022/07/03 04:07:19;;;;;;;3.72;3.05;;;18.10;99.90;;;;;;5035182;28;20210;-83
2022/07/03 04:09:52;;;;;;;3.80;3.50;;;18.10;99.90;;;;;;5034970;28;20206;-83
2022/07/03 04:12:21;;;;;;;4.97;3.95;;;18.20;99.90;;;;;;5034172;28;20242;-83
2022/07/03 04:14:50;;;;;;;7.35;3.55;;;18.20;99.90;;;;;;5034637;28;20203;-84
2022/07/03 04:17:18;;;;;;;3.63;3.33;;;18.20;99.90;;;;;;5035085;28;20202;-83
2022/07/03 04:19:51;;;;;;;5.20;4.70;;;18.30;99.90;;;;;;5034884;28;20297;-84
2022/07/03 04:22:19;;;;;;;3.97;3.65;;;18.30;99.90;;;;;;5034660;28;20242;-83
2022/07/03 04:24:51;;;;;;;6.55;4.60;;;18.30;99.90;;;;;;5034825;28;20241;-83
2022/07/03 04:27:19;;;;;;;4.00;3.70;;;18.40;99.90;;;;;;5034512;28;20206;-83
2022/07/03 04:30:10;;;;;;;4.38;3.97;;;18.40;99.90;;;;;;5034010;28;20203;-84
2022/07/03 04:32:49;;;;;;;3.80;3.50;;;18.40;99.90;;;;;;5033512;28;20288;-83
2022/07/03 04:35:19;;;;;;;4.43;3.75;;;18.50;99.90;;;;;;5034166;28;20209;-83
2022/07/03 04:37:48;;;;;;;4.25;3.95;;;18.50;99.90;;;;;;5034635;28;20257;-83
2022/07/03 04:40:16;;;;;;;3.92;3.63;;;18.60;99.90;;;;;;5034288;28;20245;-83
2022/07/03 04:42:44;;;;;;;4.82;3.88;;;18.60;99.90;;;;;;5034168;28;20308;-83
2022/07/03 04:45:13;;;;;;;3.80;3.50;;;18.60;99.90;;;;;;5034154;28;20300;-83
2022/07/03 04:47:41;;;;;;;3.65;3.35;;;18.60;99.90;;;;;;5034069;28;20293;-83
2022/07/03 04:50:10;;;;;;;6.50;3.97;;;18.70;99.90;;;;;;5033885;28;20228;-84
2022/07/03 04:52:39;;;;;;;5.20;3.58;;;18.70;99.90;;;;;;5033454;28;20263;-83
2022/07/03 04:55:09;;;;;;;4.35;3.80;;;18.70;99.90;;;;;;5033845;28;20262;-83
2022/07/03 04:57:38;;;;;;;4.82;4.18;;;18.80;99.90;;;;;;5034104;28;20202;-83
2022/07/03 05:00:07;;;;;;;3.90;3.60;;;18.90;99.90;;;;;;5033960;28;20264;-83
2022/07/03 05:02:36;;;;;;;3.95;3.65;;;18.90;99.90;;;;;;5033745;28;20290;-83
2022/07/03 05:05:04;;;;;;;5.13;4.63;;;19.00;99.90;;;;;;5034010;28;20202;-83
2022/07/03 05:07:33;;;;;;;3.38;3.10;;;19.00;99.90;;;;;;5033675;28;20301;-83
2022/07/03 05:10:02;;;;;;;5.28;3.45;;;19.00;99.90;;;;;;5033733;28;20207;-83
2022/07/03 05:12:31;;;;;;;5.75;3.90;;;19.10;99.90;;;;;;5032693;28;20222;-83
2022/07/03 05:15:06;;;;;;;3.45;3.25;;;19.10;99.90;;;;;;5033548;28;20225;-83
2022/07/03 05:17:35;;;;;;;8.40;4.55;;;19.10;99.90;;;;;;5033937;28;20289;-84
2022/07/03 05:22:51;;;;;;;3.15;2.95;;;19.20;99.90;;;;;;5033352;28;20246;-81
2022/07/03 05:25:21;;;;;;;4.22;3.92;;;19.30;99.90;;;;;;5033271;28;20300;-81
2022/07/03 05:27:52;;;;;;;4.22;3.83;;;19.30;99.90;;;;;;5033544;28;20293;-81
2022/07/03 05:30:21;;;;;;;4.45;4.05;;;19.40;99.90;;;;;;5033010;28;20226;-81
2022/07/03 05:32:50;;;;;;;4.03;3.70;;;19.40;99.90;;;;;;5033328;28;20309;-81
2022/07/03 05:35:18;;;;;;;3.83;3.47;;;19.50;99.90;;;;;;5033455;28;20222;-81
2022/07/03 05:37:47;;;;;;;5.18;4.07;;;19.50;99.90;;;;;;5032797;28;20226;-81
2022/07/03 05:40:16;;;;;;;3.35;3.10;;;19.60;99.90;;;;;;5033151;28;20198;-81
2022/07/03 05:42:46;;;;;;;3.22;3.03;;;19.70;99.90;;;;;;5032791;28;20260;-81
2022/07/03 05:45:15;;;;;;;3.20;2.90;;;19.70;99.90;;;;;;5032954;28;20297;-81
2022/07/03 05:47:43;;;;;;;4.13;3.83;;;19.80;99.90;;;;;;5033028;28;20289;-81
2022/07/03 05:50:12;;;;;;;3.90;3.58;;;19.80;99.90;;;;;;5032731;28;20297;-81
2022/07/03 05:52:40;;;;;;;3.60;3.40;;;19.80;99.90;;;;;;5033040;28;20226;-81
2022/07/03 05:55:09;;;;;;;4.03;3.72;;;19.90;99.90;;;;;;5032905;28;20285;-81
2022/07/03 05:57:37;;;;;;;3.75;3.55;;;19.90;99.90;;;;;;5032929;28;20206;-81
2022/07/03 06:00:08;;;;;;;3.42;3.13;;;20.00;99.90;;;;;;5032899;28;20240;-81
2022/07/03 06:02:36;;;;;;;2.60;2.50;;;20.10;99.90;;;;;;5032496;28;20254;-81
2022/07/03 06:05:05;;;;;;;3.30;3.10;;;20.20;99.90;;;;;;5032666;28;20302;-81
2022/07/03 06:07:34;;;;;;;4.05;3.75;;;20.30;99.90;;;;;;5032878;28;20229;-81
2022/07/03 06:10:02;;;;;;;4.32;3.92;;;20.30;99.90;;;;;;5032683;28;20222;-81
2022/07/03 06:12:30;;;;;;;4.00;3.63;;;20.40;99.90;;;;;;5032212;28;20246;-81
2022/07/03 06:14:58;;;;;;;4.10;3.70;;;20.50;99.90;;;;;;5032764;28;20293;-81
2022/07/03 06:17:31;;;;;;;4.20;3.90;;;20.60;99.90;;;;;;5033081;28;20198;-81
2022/07/03 06:19:59;;;;;;;4.03;3.58;;;20.70;99.90;;;;;;5032701;28;20206;-81
2022/07/03 06:22:27;;;;;;;3.72;3.42;;;20.80;99.90;;;;;;5032570;28;20305;-81
2022/07/03 06:24:56;;;;;;;4.53;3.17;;;20.90;99.90;;;;;;5032688;28;20285;-81
2022/07/03 06:27:24;;;;;;;6.13;3.83;;;20.90;99.90;;;;;;5032789;28;20210;-81
2022/07/03 06:29:53;;;;;;;3.33;3.13;;;21.00;99.90;;;;;;5032684;28;20220;-82
2022/07/03 06:32:21;;;;;;;4.13;3.78;;;21.00;99.90;;;;;;5032188;28;20309;-81
2022/07/03 06:34:52;;;;;;;3.70;3.40;;;21.10;99.90;;;;;;5032588;28;20232;-81
2022/07/03 06:37:20;;;;;;;6.03;3.22;;;21.20;99.90;;;;;;5032624;28;20273;-81
2022/07/03 06:39:48;;;;;;;4.78;3.70;;;21.30;99.90;;;;;;5032815;28;20262;-81
2022/07/03 06:42:17;;;;;;;3.35;3.05;;;21.40;99.90;;;;;;5032180;28;20230;-81
2022/07/03 06:44:45;;;;;;;3.40;3.20;;;21.30;99.90;;;;;;5032249;28;20248;-81
2022/07/03 06:47:19;;;;;;;3.40;3.10;;;21.30;99.90;;;;;;5032508;28;20230;-81
2022/07/03 06:49:47;;;;;;;3.92;3.63;;;21.40;99.90;;;;;;5032581;28;20206;-81
2022/07/03 06:52:17;;;;;;;5.13;3.70;;;21.60;99.90;;;;;;5032161;28;20290;-81
2022/07/03 06:54:45;;;;;;;4.50;3.53;;;21.70;99.90;;;;;;5032545;28;20210;-81
2022/07/03 06:57:14;;;;;;;4.15;3.25;;;21.80;99.90;;;;;;5034834;28;20285;-81
2022/07/03 06:59:43;;;;;;;3.63;3.33;;;22.00;99.90;;;;;;5036159;28;20242;-81
2022/07/03 07:02:11;;;;;;;4.43;3.40;;;22.20;99.90;;;;;;5035805;28;20268;-81
2022/07/03 07:04:39;;;;;;;3.50;3.20;;;22.40;99.90;;;;;;5035973;28;20244;-81
2022/07/03 07:07:08;;;;;;;3.28;2.97;;;22.60;99.90;;;;;;5036082;28;20206;-81
2022/07/03 07:09:37;;;;;;;4.38;3.97;;;22.80;99.90;;;;;;5036103;28;20290;-81
2022/07/03 07:12:07;;;;;;;3.17;2.90;;;23.00;99.90;;;;;;5035193;28;20245;-81
2022/07/03 07:14:35;;;;;;;4.25;3.85;;;23.20;99.90;;;;;;5035888;28;20253;-81
2022/07/03 07:17:03;;;;;;;3.70;3.38;;;23.20;99.90;;;;;;5036344;28;20249;-81
2022/07/03 07:19:32;;;;;;;3.38;3.10;;;23.40;99.90;;;;;;5035865;28;20229;-81
2022/07/03 07:22:13;;;;;;;3.38;3.17;;;23.80;99.90;;;;;;5040053;28;20194;-82
2022/07/03 07:24:42;;;;;;;3.10;2.88;;;24.50;99.90;;;;;;5046471;28;20260;-85
2022/07/03 07:27:11;;;;;;;2.15;2.05;;;25.40;99.90;;;;;;5055896;28;20297;-84
2022/07/03 07:29:39;;;;;;;4.45;3.03;;;26.70;99.90;;;;;;5055849;28;20210;-86
2022/07/03 07:32:08;;;;;;;2.65;2.45;;;27.50;99.90;;;;;;5055382;28;20208;-83
2022/07/03 07:34:37;;;;;;;2.53;2.33;;;28.40;99.90;;;;;;5055651;28;20225;-84
2022/07/03 07:37:09;;;;;;;2.08;1.98;;;29.00;99.20;;;;;;5056101;28;20202;-82
2022/07/03 07:39:37;;;;;;;2.60;2.45;;;30.10;97.10;;;;;;5056263;28;20244;-82
2022/07/03 07:42:07;;;;;;;2.92;2.72;;;30.30;95.00;;;;;;5054912;28;20300;-82
2022/07/03 07:44:35;;;;;;;2.75;2.55;;;31.30;93.70;;;;;;5055633;28;20197;-82
2022/07/03 07:47:04;;;;;;;3.35;2.70;;;32.30;91.40;;;;;;5055243;28;20288;-82
2022/07/03 07:49:33;;;;;;;2.60;2.25;;;33.20;88.10;;;;;;5055046;28;20240;-82
2022/07/03 07:52:01;;;;;;;3.30;2.35;;;33.10;87.40;;;;;;5054657;28;20201;-82
2022/07/03 07:54:30;;;;;;;2.50;2.40;;;33.90;84.20;;;;;;5054776;28;20308;-82
2022/07/03 07:56:58;;;;;;;3.47;2.55;;;34.20;81.40;;;;;;5055294;28;20269;-82
2022/07/03 07:59:28;;;;;;;2.00;1.90;;;34.50;80.10;;;;;;5054839;28;20232;-82
2022/07/03 08:07:27;;;;;;;2.42;2.25;;;37.40;72.60;;;;;;5053806;28;20244;-82
2022/07/03 08:09:55;;;;;;;2.03;1.92;;;37.70;67.70;;;;;;5054506;28;20296;-82
2022/07/03 08:12:24;;;;;;;2.03;1.92;;;38.30;67.50;;;;;;5054153;28;20275;-82
2022/07/03 08:14:53;;;;;;;2.58;2.38;;;39.00;64.20;;;;;;5054555;28;20244;-82
2022/07/03 08:17:22;;;;;;;2.00;1.90;;;39.00;61.30;;;;;;5054990;28;20202;-82
2022/07/03 08:19:50;;;;;;;2.33;2.20;;;38.40;60.60;;;;;;5054683;28;20291;-82
2022/07/03 08:22:18;;;;;;;2.22;2.10;;;38.30;62.80;;;;;;5054706;28;20248;-82
2022/07/03 08:24:47;;;;;;;1.80;1.70;;;38.30;61.80;;;;;;5054608;28;20221;-82
2022/07/03 08:27:15;;;;;;;2.50;2.30;;;38.40;61.40;;;;;;5053890;28;20232;-82
2022/07/03 08:29:43;;;;;;;2.50;2.30;;;38.00;58.50;;;;;;5054490;28;20236;-82
2022/07/03 08:32:14;;;;;;;2.30;2.15;;;37.70;60.40;;;;;;5054363;28;20215;-82
2022/07/03 08:34:42;;;;;;;1.77;1.67;;;37.70;60.10;;;;;;5054437;28;20221;-82
2022/07/03 08:37:11;;;;;;;1.58;1.48;;;37.70;59.20;;;;;;5054391;28;20209;-82
2022/07/03 08:39:39;;;;;;;2.25;2.05;;;38.20;61.20;;;;;;5053927;28;20237;-82
2022/07/03 08:42:10;;;;;;;2.38;2.13;;;38.30;57.00;;;;;;5053636;28;20327;-82
2022/07/03 08:44:44;;;;;;;2.08;1.77;;;37.90;57.30;;;;;;5054190;28;20208;-82
2022/07/03 08:47:16;;;;;;;2.50;2.25;;;36.50;60.60;;;;;;5053994;28;20292;-82
2022/07/03 08:49:45;;;;;;;2.42;2.22;;;36.20;59.70;;;;;;5053956;28;20288;-82
2022/07/03 08:52:14;;;;;;;2.17;1.98;;;36.40;60.40;;;;;;5053603;28;20289;-82
2022/07/03 08:54:42;;;;;;;3.45;1.98;;;37.00;58.30;;;;;;5053343;28;20256;-82
2022/07/03 08:57:12;;;;;;;2.13;1.95;;;36.60;57.50;;;;;;5053854;28;20209;-82
2022/07/03 08:59:41;;;;;;;2.00;1.90;;;36.30;58.30;;;;;;5054301;28;20212;-82
2022/07/03 09:02:10;;;;;;;1.83;1.73;;;36.70;59.30;;;;;;5053285;28;20265;-82
2022/07/03 09:04:40;;;;;;;2.63;2.42;;;37.70;59.20;;;;;;5053704;28;20223;-82
2022/07/03 09:07:09;;;;;;;3.10;2.90;;;38.50;58.50;;;;;;5053483;28;20250;-82
2022/07/03 09:09:39;;;;;;;2.78;2.53;;;39.00;56.90;;;;;;5053650;28;20244;-82
2022/07/03 09:12:07;;;;;;;2.00;1.83;;;39.90;56.70;;;;;;5052982;28;20197;-82
2022/07/03 09:14:36;;;;;;;1.70;1.60;;;40.00;55.50;;;;;;5053509;28;20282;-82
2022/07/03 09:17:07;;;;;;;1.80;1.70;;;40.20;53.70;;;;;;5053112;28;20209;-82
2022/07/03 09:19:45;;;;;;;2.40;2.20;;;39.60;53.40;;;;;;5052911;28;20292;-82
2022/07/03 09:22:21;;;;;;;1.90;1.80;;;39.50;52.70;;;;;;5053314;28;20205;-82
2022/07/03 09:24:50;;;;;;;2.17;1.98;;;38.70;53.10;;;;;;5053330;28;20197;-82
2022/07/03 09:27:20;;;;;;;1.85;1.75;;;38.50;52.90;;;;;;5053257;28;20268;-82
2022/07/03 09:30:02;;;;;;;2.20;2.00;;;38.30;54.20;;;;;;5053338;28;20289;-82
2022/07/03 09:32:42;;;;;;;2.03;1.83;;;37.30;56.00;;;;;;5052717;28;20249;-82
2022/07/03 09:35:34;;;;;;;1.92;1.83;;;37.60;55.50;;;;;;5049429;28;20213;-82
2022/07/03 09:38:04;;;;;;;1.83;1.73;;;37.80;54.50;;;;;;5052851;28;20292;-82
2022/07/03 09:40:49;;;;;;;1.92;1.75;;;37.10;54.30;;;;;;5052942;28;20201;-82
2022/07/03 09:43:23;;;;;;;3.35;3.15;;;36.90;55.70;;;;;;5052831;28;20271;-82
2022/07/03 09:45:54;;;;;;;2.17;2.08;;;37.10;56.00;;;;;;5052780;28;20288;-82
2022/07/03 09:48:27;;;;;;;2.47;2.20;;;37.00;56.10;;;;;;5052756;28;20205;-82
2022/07/03 09:51:23;;;;;;;12.45;2.33;;;36.90;55.60;;;;;;5052628;28;20208;-82
2022/07/03 09:53:55;;;;;;;2.50;2.30;;;37.10;55.30;;;;;;5052440;28;20288;-82
2022/07/03 09:56:27;;;;;;;1.80;1.70;;;37.10;55.60;;;;;;5052359;28;20338;-82
2022/07/03 09:59:11;;;;;;;2.60;1.90;;;36.00;58.00;;;;;;5052992;28;20272;-82
2022/07/03 10:01:41;;;;;;;1.95;1.85;;;36.10;59.30;;;;;;5052636;28;20227;-82
2022/07/03 10:04:16;;;;;;;1.67;1.58;;;36.30;57.70;;;;;;5052472;28;20229;-82
2022/07/03 10:06:49;;;;;;;1.85;1.75;;;36.60;58.10;;;;;;5052404;28;20265;-82
2022/07/03 10:09:20;;;;;;;2.58;1.98;;;36.90;58.20;;;;;;5052556;28;20268;-82
2022/07/03 10:11:49;;;;;;;4.47;2.55;;;37.60;57.10;;;;;;5052003;28;20299;-82
2022/07/03 10:14:33;;;;;;;2.88;2.05;;;37.80;57.50;;;;;;5010768;28;20218;-82
2022/07/03 10:17:18;;;;;;;2.38;1.70;;;36.90;56.60;;;;;;5011066;28;20218;-82
2022/07/03 10:19:55;;;;;;;2.28;2.15;;;36.80;58.40;;;;;;5011015;28;20222;-82
2022/07/03 10:22:28;;;;;;;2.20;2.10;;;37.00;57.60;;;;;;5010514;28;20317;-83
2022/07/03 10:24:56;;;;;;;1.98;1.88;;;36.90;57.10;;;;;;5010861;28;20225;-82
2022/07/03 10:27:25;;;;;;;2.53;2.33;;;37.00;58.10;;;;;;5010660;28;20214;-82
2022/07/03 10:29:55;;;;;;;2.13;1.92;;;36.50;57.30;;;;;;5010551;28;20198;-82
2022/07/03 10:32:24;;;;;;;1.90;1.80;;;36.40;58.20;;;;;;5013364;28;20222;-82
2022/07/03 10:34:52;;;;;;;2.22;2.03;;;36.70;58.00;;;;;;5014549;28;20290;-82
2022/07/03 10:37:28;;;;;;;2.10;2.00;;;36.20;58.70;;;;;;5014524;28;20207;-82
2022/07/03 10:45:32;;;;;;;2.10;2.00;;;36.00;58.50;;;;;;5014657;28;20207;-82
2022/07/03 10:48:01;;;;;;;2.10;2.00;;;36.50;58.40;;;;;;5014384;28;20245;-82
2022/07/03 10:50:29;;;;;;;2.17;2.08;;;36.70;57.80;;;;;;5014135;28;20290;-82
2022/07/03 10:53:23;;;;;;;2.80;2.60;;;36.70;57.80;;;;;;5052646;28;20300;-82
2022/07/03 10:56:05;;;;;;;2.65;2.45;;;36.70;57.40;;;;;;5056145;28;20304;-82
2022/07/03 10:58:33;;;;;;;2.05;1.95;;;35.90;58.00;;;;;;5055383;28;20269;-83
2022/07/03 11:01:01;;;;;;;2.17;1.98;;;35.60;58.50;;;;;;5055699;28;20239;-82
2022/07/03 11:03:53;;;;;;;2.33;2.20;;;35.60;59.60;;;;;;5055667;28;20237;-82
2022/07/03 11:06:21;;;;;;;2.72;2.53;;;36.10;59.80;;;;;;5055656;28;20233;-83
2022/07/03 11:09:03;;;;;;;2.15;2.03;;;36.00;58.90;;;;;;5055542;28;20312;-83
2022/07/03 11:11:57;;;;;;;2.20;2.00;;;35.80;58.70;;;;;;5055374;28;20208;-83
2022/07/03 11:14:27;;;;;;;2.45;2.28;;;35.30;59.70;;;;;;5055648;28;20201;-83
2022/07/03 11:17:18;;;;;;;2.75;2.42;;;35.50;60.10;;;;;;5056023;28;20229;-83
2022/07/03 11:20:23;;;;;;;1.90;1.80;;;36.00;59.50;;;;;;5056203;28;20300;-83
2022/07/03 11:22:46;;;;;;;1.80;1.70;;;35.80;59.00;;;;;;5055728;28;20228;-83
2022/07/03 11:25:15;;;;;;;2.90;2.17;;;35.80;60.10;;;;;;5054279;28;20254;-84
2022/07/03 11:27:54;;;;;;;2.30;2.17;;;35.50;60.60;;;;;;5036492;28;20205;-86
2022/07/03 11:30:25;;;;;;;2.42;2.22;;;35.60;60.00;;;;;;5054180;28;20228;-84
2022/07/03 11:32:59;;;;;;;1.73;1.63;;;35.10;60.30;;;;;;5056228;28;20229;-84
2022/07/03 11:35:48;;;;;;;2.88;2.55;;;34.80;61.40;;;;;;5055708;28;20279;-84
2022/07/03 11:38:18;;;;;;;1.98;1.88;;;35.00;61.90;;;;;;5056026;28;20281;-84
2022/07/03 11:40:48;;;;;;;2.55;2.35;;;35.30;60.10;;;;;;5055897;28;20221;-84
2022/07/03 11:43:18;;;;;;;2.60;2.47;;;35.10;60.40;;;;;;5055313;28;20241;-85
2022/07/03 11:45:49;;;;;;;4.80;4.40;;;35.10;60.60;;;;;;5055727;28;20193;-85
2022/07/03 11:48:19;;;;;;;2.55;2.35;;;35.40;60.70;;;;;;5055672;28;20288;-84
2022/07/03 11:50:49;;;;;;;2.03;1.92;;;35.60;60.00;;;;;;5055513;28;20201;-84
2022/07/03 11:53:30;;;;;;;3.20;2.90;;;35.70;59.40;;;;;;5055359;28;20248;-85
2022/07/03 11:56:00;;;;;;;3.05;2.70;;;35.60;59.60;;;;;;5055523;28;20213;-84
2022/07/03 11:58:43;;;;;;;2.75;2.55;;;35.80;59.60;;;;;;5055082;28;20205;-85
2022/07/03 12:01:35;;;;;;;1.77;1.67;;;36.00;59.00;;;;;;5054932;28;20201;-85
2022/07/03 12:04:08;;;;;;;2.08;1.98;;;35.40;59.50;;;;;;5047053;28;20315;-84
2022/07/03 12:06:38;;;;;;;3.13;2.10;;;35.40;59.40;;;;;;5054931;28;20224;-84
2022/07/03 12:09:18;;;;;;;3.72;2.22;;;35.70;59.00;;;;;;5054679;28;20201;-84
2022/07/03 12:11:57;;;;;;;2.67;2.47;;;35.00;59.80;;;;;;5054315;28;20209;-84
2022/07/03 12:14:44;;;;;;;1.60;1.50;;;35.10;58.40;;;;;;5055307;28;20216;-84
2022/07/03 12:17:15;;;;;;;1.88;1.77;;;35.10;59.00;;;;;;5054856;28;20248;-84
2022/07/03 12:19:47;;;;;;;2.83;2.60;;;35.20;59.00;;;;;;5055096;28;20194;-85
2022/07/03 12:22:27;;;;;;;2.10;1.92;;;35.10;59.40;;;;;;5054822;28;20232;-85
2022/07/03 12:25:01;;;;;;;2.50;1.85;;;34.50;59.60;;;;;;5054951;28;20213;-85
2022/07/03 12:27:30;;;;;;;2.47;2.20;;;34.20;61.20;;;;;;5054964;28;20200;-85
2022/07/03 12:30:01;;;;;;;3.88;2.33;;;34.10;60.90;;;;;;5054631;28;20260;-85
2022/07/03 12:32:30;;;;;;;2.53;2.10;;;34.30;60.40;;;;;;5054144;28;20217;-85
2022/07/03 12:34:58;;;;;;;2.00;1.90;;;34.80;59.60;;;;;;5054657;28;20209;-85
2022/07/03 12:37:37;;;;;;;2.13;1.92;;;34.60;58.00;;;;;;5054213;28;20214;-85
2022/07/03 12:40:08;;;;;;;2.20;2.10;;;34.60;58.00;;;;;;5054446;28;20205;-85
2022/07/03 12:42:44;;;;;;;2.22;2.13;;;34.70;59.40;;;;;;5054572;28;20227;-85
2022/07/03 12:45:15;;;;;;;6.20;2.13;;;34.60;58.90;;;;;;5051578;28;20289;-85
2022/07/03 12:47:45;;;;;;;2.10;2.00;;;34.80;57.30;;;;;;5039483;28;20225;-85
2022/07/03 12:50:15;;;;;;;2.40;2.22;;;34.10;57.90;;;;;;5034470;28;20236;-84
2022/07/03 12:52:51;;;;;;;3.30;2.03;;;34.10;57.90;;;;;;5038346;28;20213;-83
2022/07/03 12:55:26;;;;;;;2.20;2.08;;;34.40;59.00;;;;;;5053005;28;20251;-84
2022/07/03 13:01:02;;;;;;;1.70;1.60;;;34.20;57.90;;;;;;5054450;28;20288;-84
2022/07/03 13:04:17;;;;;;;2.63;2.42;;;34.20;56.90;;;;;;5054101;28;20229;-84
2022/07/03 13:06:46;;;;;;;1.85;1.75;;;34.40;57.50;;;;;;5054269;28;20289;-84
2022/07/03 13:09:14;;;;;;;2.40;2.30;;;34.50;57.70;;;;;;5054168;28;20221;-84
2022/07/03 13:12:00;;;;;;;2.42;2.25;;;34.40;57.50;;;;;;5130806;27;20574;-84
2022/07/03 13:14:29;;;;;;;2.47;2.28;;;34.20;57.50;;;;;;5132144;27;20200;-84
2022/07/03 13:16:59;;;;;;;2.10;1.67;;;34.40;58.90;;;;;;5131696;27;20221;-84
2022/07/03 13:19:29;;;;;;;2.20;2.08;;;34.60;58.90;;;;;;5132059;27;20209;-84
2022/07/03 13:21:58;;;;;;;1.80;1.70;;;34.50;57.10;;;;;;5131180;27;20250;-84
2022/07/03 13:24:27;;;;;;;1.95;1.85;;;34.40;56.30;;;;;;5131140;27;20268;-84
2022/07/03 13:27:16;;;;;;;2.20;2.08;;;34.10;58.40;;;;;;5130851;27;20202;-85
2022/07/03 13:29:44;;;;;;;2.03;1.92;;;33.60;59.80;;;;;;5130719;27;20277;-85
2022/07/03 13:32:12;;;;;;;1.92;1.83;;;33.60;60.90;;;;;;5130956;27;20267;-85